createdAt,value
2023-04-10T00:00:41.888Z,69.59
2023-04-10T00:03:08.468Z,68.36
2023-04-10T00:05:35.021Z,68.91
2023-04-10T00:08:01.451Z,69.60
2023-04-10T00:10:27.768Z,69.85
2023-04-10T00:12:54.150Z,70.74
2023-04-10T00:15:20.663Z,70.47
2023-04-10T00:17:46.998Z,71.70
2023-04-10T00:20:13.313Z,70.49
2023-04-10T00:22:39.593Z,70.65
2023-04-10T00:25:06.372Z,70.41
2023-04-10T00:27:32.673Z,71.11
2023-04-10T00:29:58.987Z,69.75
2023-04-10T00:32:25.412Z,70.36
2023-04-10T00:34:51.821Z,71.06
2023-04-10T00:37:18.198Z,70.12
2023-04-10T00:39:45.000Z,70.89
2023-04-10T00:42:11.368Z,73.55
2023-04-10T00:44:37.686Z,71.24
2023-04-10T00:47:05.148Z,71.35
2023-04-10T00:49:31.443Z,72.48
2023-04-10T00:51:58.584Z,72.11
2023-04-10T00:54:25.374Z,71.74
2023-04-10T00:56:52.058Z,71.37
2023-04-10T00:59:18.749Z,71.09
2023-04-10T01:01:45.117Z,74.47
2023-04-10T01:04:11.730Z,72.51
2023-04-10T01:07:07.304Z,72.25
2023-04-10T01:09:59.895Z,73.16
2023-04-10T01:12:53.605Z,72.40
2023-04-10T01:15:26.776Z,72.27
2023-04-10T01:18:13.081Z,72.25
2023-04-10T01:20:41.796Z,71.58
2023-04-10T01:23:54.326Z,72.38
2023-04-10T01:26:39.419Z,71.51
2023-04-10T01:29:12.307Z,71.20
2023-04-10T01:31:54.358Z,71.72
2023-04-10T01:34:25.039Z,70.90
2023-04-10T01:37:03.722Z,71.22
2023-04-10T01:39:31.148Z,71.82
2023-04-10T01:41:58.947Z,71.57
2023-04-10T01:44:26.948Z,74.03
2023-04-10T01:46:55.244Z,73.18
2023-04-10T01:49:23.947Z,72.98
2023-04-10T01:51:51.574Z,72.37
2023-04-10T01:54:18.223Z,71.76
2023-04-10T01:56:44.647Z,72.43
2023-04-10T01:59:11.643Z,72.92
2023-04-10T02:01:38.365Z,73.31
2023-04-10T02:04:05.090Z,73.00
2023-04-10T02:07:08.494Z,73.51
2023-04-10T02:09:40.713Z,73.30
2023-04-10T02:12:12.422Z,72.83
2023-04-10T02:14:42.668Z,72.67
2023-04-10T02:17:10.899Z,72.89
2023-04-10T02:19:38.502Z,73.00
2023-04-10T02:22:05.218Z,74.29
2023-04-10T02:24:32.224Z,73.97
2023-04-10T02:26:58.628Z,74.11
2023-04-10T02:29:24.908Z,73.32
2023-04-10T02:31:51.250Z,73.37
2023-04-10T02:34:17.549Z,73.35
2023-04-10T02:36:43.973Z,73.36
2023-04-10T02:39:10.259Z,73.35
2023-04-10T02:41:36.544Z,73.65
2023-04-10T02:44:03.011Z,73.11
2023-04-10T02:46:29.355Z,73.45
2023-04-10T02:48:55.806Z,73.38
2023-04-10T02:51:22.075Z,73.14
2023-04-10T02:53:48.500Z,73.88
2023-04-10T02:56:14.822Z,74.92
2023-04-10T02:58:41.185Z,74.19
2023-04-10T03:01:07.482Z,73.69
2023-04-10T03:03:33.845Z,73.57
2023-04-10T03:06:00.207Z,73.34
2023-04-10T03:08:26.532Z,73.32
2023-04-10T03:10:52.842Z,74.64
2023-04-10T03:13:19.118Z,74.57
2023-04-10T03:15:45.448Z,74.06
2023-04-10T03:18:11.824Z,73.84
2023-04-10T03:20:38.231Z,73.51
2023-04-10T03:23:05.691Z,73.23
2023-04-10T03:25:34.361Z,73.79
2023-04-10T03:28:00.808Z,73.84
2023-04-10T03:30:27.123Z,73.79
2023-04-10T03:32:53.481Z,75.05
2023-04-10T03:35:19.878Z,74.35
2023-04-10T03:37:46.259Z,74.08
2023-04-10T03:40:12.955Z,74.13
2023-04-10T03:42:39.244Z,73.59
2023-04-10T03:45:05.989Z,75.31
2023-04-10T03:47:32.449Z,75.00
2023-04-10T03:49:59.027Z,74.37
2023-04-10T03:52:25.996Z,75.39
2023-04-10T03:54:52.276Z,75.12
2023-04-10T03:57:18.601Z,74.25
2023-04-10T03:59:44.870Z,74.23
2023-04-10T04:02:11.513Z,74.10
2023-04-10T04:04:38.168Z,74.08
2023-04-10T04:07:04.760Z,73.64
2023-04-10T04:09:31.151Z,75.31
2023-04-10T04:11:57.408Z,74.47
2023-04-10T04:14:24.077Z,74.19
2023-04-10T04:16:50.600Z,73.59
2023-04-10T04:19:19.594Z,73.98
2023-04-10T04:21:45.898Z,73.59
2023-04-10T04:26:38.704Z,74.00
2023-04-10T04:29:04.976Z,73.63
2023-04-10T04:31:31.294Z,74.63
2023-04-10T04:33:58.658Z,74.81
2023-04-10T04:36:24.952Z,75.12
2023-04-10T04:38:51.223Z,74.76
2023-04-10T04:41:19.403Z,74.71
2023-04-10T04:43:46.730Z,74.98
2023-04-10T04:46:13.518Z,74.97
2023-04-10T04:48:39.970Z,75.08
2023-04-10T04:51:07.244Z,75.31
2023-04-10T04:53:33.576Z,75.56
2023-04-10T04:55:59.890Z,75.05
2023-04-10T04:58:26.191Z,75.00
2023-04-10T05:00:52.525Z,75.05
2023-04-10T05:03:19.163Z,75.07
2023-04-10T05:05:45.739Z,74.91
2023-04-10T05:08:12.035Z,74.89
2023-04-10T05:10:39.068Z,74.61
2023-04-10T05:13:05.506Z,74.99
2023-04-10T05:15:31.897Z,74.27
2023-04-10T05:17:58.282Z,74.65
2023-04-10T05:20:24.699Z,74.71
2023-04-10T05:22:51.002Z,74.42
2023-04-10T05:25:17.490Z,74.17
2023-04-10T05:27:43.884Z,74.16
2023-04-10T05:30:10.792Z,74.58
2023-04-10T05:32:37.180Z,75.46
2023-04-10T05:35:03.805Z,76.16
2023-04-10T05:37:30.107Z,75.27
2023-04-10T05:39:56.420Z,75.04
2023-04-10T05:42:23.929Z,75.02
2023-04-10T05:44:50.358Z,75.95
2023-04-10T05:47:16.649Z,75.68
2023-04-10T05:49:42.955Z,75.22
2023-04-10T05:52:09.462Z,75.59
2023-04-10T05:54:35.988Z,75.78
2023-04-10T05:57:02.266Z,74.76
2023-04-10T05:59:28.542Z,74.69
2023-04-10T06:01:56.765Z,74.56
2023-04-10T06:04:23.402Z,73.70
2023-04-10T06:06:49.884Z,74.04
2023-04-10T06:09:16.170Z,74.08
2023-04-10T06:11:42.460Z,74.09
2023-04-10T06:14:08.769Z,73.57
2023-04-10T06:16:35.138Z,73.73
2023-04-10T06:19:01.438Z,73.09
2023-04-10T06:21:27.740Z,73.05
2023-04-10T06:23:54.409Z,72.96
2023-04-10T06:26:21.016Z,73.45
2023-04-10T06:28:47.369Z,73.71
2023-04-10T06:31:13.673Z,73.01
2023-04-10T06:33:39.979Z,72.89
2023-04-10T06:36:06.862Z,71.64
2023-04-10T06:38:33.223Z,71.40
2023-04-10T06:40:59.493Z,71.90
2023-04-10T06:43:25.796Z,71.40
2023-04-10T06:45:52.090Z,71.62
2023-04-10T06:48:18.395Z,70.87
2023-04-10T06:50:44.694Z,70.79
2023-04-10T06:53:11.014Z,70.41
2023-04-10T06:55:37.306Z,70.36
2023-04-10T06:58:03.618Z,70.85
2023-04-10T07:00:30.349Z,70.51
2023-04-10T07:02:56.824Z,70.02
2023-04-10T07:05:23.144Z,69.93
2023-04-10T07:07:49.442Z,69.39
2023-04-10T07:10:16.147Z,69.42
2023-04-10T07:12:43.284Z,69.54
2023-04-10T07:15:09.808Z,69.17
2023-04-10T07:17:36.230Z,68.76
2023-04-10T07:20:02.838Z,68.94
2023-04-10T07:22:29.241Z,68.47
2023-04-10T07:24:55.524Z,68.52
2023-04-10T07:27:21.785Z,68.10
2023-04-10T07:29:48.081Z,67.12
2023-04-10T07:32:14.441Z,66.85
2023-04-10T07:34:41.209Z,66.58
2023-04-10T07:37:07.627Z,66.92
2023-04-10T07:39:33.912Z,66.32
2023-04-10T07:42:00.223Z,65.07
2023-04-10T07:44:26.949Z,65.27
2023-04-10T07:46:53.217Z,63.90
2023-04-10T07:49:19.699Z,64.56
2023-04-10T07:51:46.073Z,62.49
2023-04-10T07:54:12.487Z,63.04
2023-04-10T07:56:38.815Z,63.39
2023-04-10T07:59:05.623Z,61.55
2023-04-10T08:01:31.985Z,61.27
2023-04-10T08:03:58.759Z,61.72
2023-04-10T08:06:25.328Z,58.00
2023-04-10T08:08:51.767Z,58.89
2023-04-10T08:11:29.578Z,58.18
2023-04-10T08:13:58.380Z,58.44
2023-04-10T08:16:26.041Z,58.12
2023-04-10T08:18:53.690Z,57.33
2023-04-10T08:21:22.336Z,56.92
2023-04-10T08:23:53.037Z,56.35
2023-04-10T08:26:19.320Z,55.99
2023-04-10T08:28:47.892Z,55.49
2023-04-10T08:31:14.271Z,55.93
2023-04-10T08:33:40.706Z,55.74
2023-04-10T08:36:08.936Z,54.70
2023-04-10T08:38:35.308Z,54.13
2023-04-10T08:41:01.860Z,54.90
2023-04-10T08:43:28.218Z,54.15
2023-04-10T08:45:55.951Z,53.32
2023-04-10T08:48:31.011Z,53.36
2023-04-10T08:51:00.897Z,53.14
2023-04-10T08:53:31.412Z,53.50
2023-04-10T08:56:00.744Z,53.25
2023-04-10T08:58:28.252Z,52.62
2023-04-10T09:00:55.058Z,52.53
2023-04-10T09:03:21.828Z,52.69
2023-04-10T09:05:48.152Z,52.16
2023-04-10T09:08:15.127Z,51.28
2023-04-10T09:10:41.487Z,50.38
2023-04-10T09:13:07.772Z,50.51
2023-04-10T09:15:57.037Z,50.59
2023-04-10T09:18:40.789Z,51.07
2023-04-10T09:21:08.153Z,51.04
2023-04-10T09:23:34.497Z,48.87
2023-04-10T09:26:00.771Z,49.50
2023-04-10T09:28:27.137Z,48.82
2023-04-10T09:30:53.460Z,49.49
2023-04-10T09:33:21.144Z,48.30
2023-04-10T09:35:47.482Z,48.91
2023-04-10T09:38:15.782Z,49.05
2023-04-10T09:40:42.193Z,48.94
2023-04-10T09:43:19.430Z,48.10
2023-04-10T09:45:50.646Z,47.73
2023-04-10T09:48:17.597Z,46.23
2023-04-10T09:50:44.239Z,46.44
2023-04-10T09:53:13.753Z,46.37
2023-04-10T09:55:41.131Z,46.02
2023-04-10T09:58:08.603Z,46.23
2023-04-10T10:00:46.264Z,46.52
2023-04-10T10:03:18.079Z,45.76
2023-04-10T10:05:47.374Z,45.74
2023-04-10T10:08:15.044Z,44.72
2023-04-10T10:10:50.689Z,45.08
2023-04-10T10:13:28.144Z,44.35
2023-04-10T10:16:17.016Z,44.67
2023-04-10T10:19:10.006Z,44.27
2023-04-10T10:21:38.099Z,43.57
2023-04-10T10:24:08.471Z,44.06
2023-04-10T10:26:38.565Z,44.67
2023-04-10T10:29:09.403Z,44.54
2023-04-10T10:31:36.409Z,44.59
2023-04-10T10:34:03.757Z,44.85
2023-04-10T10:36:30.396Z,44.64
2023-04-10T10:39:08.521Z,43.85
2023-04-10T10:41:43.243Z,43.10
2023-04-10T10:44:20.438Z,42.45
2023-04-10T10:46:51.022Z,43.50
2023-04-10T10:49:17.336Z,43.73
2023-04-10T10:51:48.838Z,42.85
2023-04-10T10:54:28.195Z,43.61
2023-04-10T10:56:54.675Z,43.15
2023-04-10T10:59:48.801Z,41.29
2023-04-10T11:02:17.079Z,41.69
2023-04-10T11:04:50.398Z,40.04
2023-04-10T11:07:17.621Z,41.44
2023-04-10T11:09:50.897Z,42.27
2023-04-10T11:12:20.205Z,41.79
2023-04-10T11:14:58.264Z,42.33
2023-04-10T11:18:01.409Z,41.62
2023-04-10T11:20:27.789Z,40.63
2023-04-10T11:23:07.069Z,40.64
2023-04-10T11:25:51.005Z,41.10
2023-04-10T11:28:38.723Z,39.00
2023-04-10T11:31:21.380Z,37.87
2023-04-10T11:33:49.442Z,39.15
2023-04-10T11:36:16.841Z,39.11
2023-04-10T11:39:00.798Z,39.44
2023-04-10T11:41:41.188Z,38.68
2023-04-10T11:44:12.519Z,39.42
2023-04-10T11:46:45.568Z,38.96
2023-04-10T11:49:12.110Z,38.76
2023-04-10T11:51:40.050Z,38.39
2023-04-10T11:54:11.629Z,39.42
2023-04-10T11:56:40.181Z,39.03
2023-04-10T11:59:07.282Z,38.62
2023-04-10T12:01:34.414Z,38.52
2023-04-10T12:04:00.933Z,39.13
2023-04-10T12:06:27.904Z,39.65
2023-04-10T12:08:54.672Z,38.31
2023-04-10T12:11:23.904Z,37.99
2023-04-10T12:13:55.162Z,36.42
2023-04-10T12:16:21.780Z,37.19
2023-04-10T12:18:49.425Z,37.44
2023-04-10T12:21:16.138Z,37.68
2023-04-10T12:23:42.522Z,38.46
2023-04-10T12:26:13.290Z,36.94
2023-04-10T12:28:41.329Z,37.56
2023-04-10T12:31:08.377Z,37.51
2023-04-10T12:33:34.700Z,37.07
2023-04-10T12:36:01.224Z,37.25
2023-04-10T12:38:41.015Z,37.46
2023-04-10T12:41:08.982Z,36.88
2023-04-10T12:43:40.410Z,35.61
2023-04-10T12:46:08.898Z,35.64
2023-04-10T12:48:35.900Z,35.07
2023-04-10T12:51:03.143Z,35.48
2023-04-10T12:53:29.379Z,36.80
2023-04-10T12:56:00.862Z,37.25
2023-04-10T12:58:27.402Z,36.37
2023-04-10T13:00:55.252Z,37.24
2023-04-10T13:03:22.185Z,37.56
2023-04-10T13:05:48.758Z,37.32
2023-04-10T13:08:15.128Z,37.57
2023-04-10T13:10:41.427Z,37.85
2023-04-10T13:13:08.091Z,36.58
2023-04-10T13:15:34.665Z,36.72
2023-04-10T13:18:01.622Z,36.52
2023-04-10T13:20:29.656Z,36.13
2023-04-10T13:22:55.926Z,35.84
2023-04-10T13:25:22.209Z,35.42
2023-04-10T13:27:48.629Z,35.39
2023-04-10T13:30:14.898Z,36.35
2023-04-10T13:32:41.172Z,35.44
2023-04-10T13:35:07.990Z,34.86
2023-04-10T13:37:34.284Z,35.32
2023-04-10T13:40:00.576Z,35.46
2023-04-10T13:42:27.060Z,35.59
2023-04-10T13:44:53.328Z,36.69
2023-04-10T13:47:19.705Z,35.59
2023-04-10T13:49:46.000Z,35.51
2023-04-10T13:52:12.292Z,35.77
2023-04-10T13:54:38.737Z,35.64
2023-04-10T13:57:05.066Z,35.47
2023-04-10T13:59:31.467Z,35.30
2023-04-10T14:01:57.805Z,34.84
2023-04-10T14:04:24.309Z,33.80
2023-04-10T14:06:51.704Z,34.78
2023-04-10T14:09:18.598Z,35.40
2023-04-10T14:11:44.866Z,34.79
2023-04-10T14:14:11.414Z,34.66
2023-04-10T14:16:37.759Z,34.41
2023-04-10T14:19:04.099Z,34.51
2023-04-10T14:21:30.405Z,34.92
2023-04-10T14:23:56.697Z,34.69
2023-04-10T14:26:23.029Z,34.09
2023-04-10T14:28:49.308Z,35.28
2023-04-10T14:31:15.638Z,35.66
2023-04-10T14:33:41.924Z,35.94
2023-04-10T14:36:08.796Z,35.20
2023-04-10T14:38:35.112Z,35.03
2023-04-10T14:41:01.405Z,34.42
2023-04-10T14:43:27.748Z,34.77
2023-04-10T14:45:54.059Z,35.75
2023-04-10T14:48:20.527Z,34.85
2023-04-10T14:50:47.416Z,34.86
2023-04-10T14:53:13.838Z,34.85
2023-04-10T14:55:40.121Z,35.35
2023-04-10T14:58:06.669Z,34.69
2023-04-10T15:00:33.070Z,34.45
2023-04-10T15:02:59.601Z,34.73
2023-04-10T15:05:27.171Z,33.84
2023-04-10T15:07:54.161Z,34.31
2023-04-10T15:10:20.587Z,34.11
2023-04-10T15:12:46.951Z,34.20
2023-04-10T15:15:13.222Z,34.71
2023-04-10T15:17:39.544Z,35.21
2023-04-10T15:20:06.234Z,35.22
2023-04-10T15:22:32.707Z,35.68
2023-04-10T15:24:59.094Z,35.33
2023-04-10T15:27:25.478Z,34.45
2023-04-10T15:29:51.759Z,34.73
2023-04-10T15:32:18.207Z,34.83
2023-04-10T15:34:44.762Z,34.70
2023-04-10T15:37:11.237Z,35.14
2023-04-10T15:39:37.500Z,35.25
2023-04-10T15:42:05.221Z,35.52
2023-04-10T15:44:31.938Z,35.07
2023-04-10T15:46:58.242Z,35.19
2023-04-10T15:49:36.255Z,34.94
2023-04-10T15:52:05.558Z,35.47
2023-04-10T15:54:33.596Z,35.60
2023-04-10T15:56:59.891Z,35.59
2023-04-10T15:59:26.219Z,35.76
2023-04-10T16:01:52.538Z,35.52
2023-04-10T16:04:19.003Z,35.98
2023-04-10T16:06:45.476Z,35.83
2023-04-10T16:09:24.315Z,35.55
2023-04-10T16:11:52.761Z,35.85
2023-04-10T16:14:19.274Z,35.82
2023-04-10T16:16:45.855Z,36.30
2023-04-10T16:19:12.277Z,36.32
2023-04-10T16:21:38.557Z,36.42
2023-04-10T16:24:05.262Z,37.08
2023-04-10T16:26:31.522Z,37.12
2023-04-10T16:28:57.836Z,36.72
2023-04-10T16:31:24.404Z,37.27
2023-04-10T16:33:50.792Z,36.57
2023-04-10T16:36:17.727Z,36.85
2023-04-10T16:38:44.022Z,37.35
2023-04-10T16:41:10.351Z,37.79
2023-04-10T16:43:36.647Z,38.08
2023-04-10T16:46:03.126Z,38.34
2023-04-10T16:48:29.545Z,38.76
2023-04-10T16:50:55.843Z,38.86
2023-04-10T16:53:22.291Z,38.73
2023-04-10T16:56:01.938Z,39.06
2023-04-10T16:58:30.264Z,39.07
2023-04-10T17:00:56.581Z,39.15
2023-04-10T17:03:22.856Z,39.20
2023-04-10T17:05:49.267Z,39.94
2023-04-10T17:08:15.570Z,40.00
2023-04-10T17:10:41.910Z,39.84
2023-04-10T17:13:08.279Z,40.01
2023-04-10T17:15:35.351Z,40.12
2023-04-10T17:18:01.736Z,40.25
2023-04-10T17:20:28.133Z,40.76
2023-04-10T17:22:54.439Z,40.63
2023-04-10T17:25:20.852Z,40.82
2023-04-10T17:27:47.218Z,41.17
2023-04-10T17:30:13.974Z,41.23
2023-04-10T17:32:40.349Z,41.55
2023-04-10T17:35:07.027Z,41.83
2023-04-10T17:37:33.315Z,42.25
2023-04-10T17:39:59.620Z,42.64
2023-04-10T17:42:25.912Z,42.59
2023-04-10T17:44:52.181Z,42.71
2023-04-10T17:47:18.588Z,43.51
2023-04-10T17:49:44.874Z,43.83
2023-04-10T17:52:11.146Z,44.28
2023-04-10T17:54:37.543Z,44.50
2023-04-10T17:57:04.612Z,44.23
2023-04-10T17:59:30.971Z,44.64
2023-04-10T18:01:57.317Z,44.89
2023-04-10T18:04:23.804Z,44.73
2023-04-10T18:06:50.245Z,45.26
2023-04-10T18:09:16.548Z,44.76
2023-04-10T18:11:42.931Z,45.56
2023-04-10T18:14:09.769Z,45.57
2023-04-10T18:16:36.136Z,45.65
2023-04-10T18:19:02.565Z,46.13
2023-04-10T18:21:28.851Z,45.59
2023-04-10T18:23:55.185Z,46.36
2023-04-10T18:26:21.472Z,46.46
2023-04-10T18:28:47.780Z,46.49
2023-04-10T18:31:14.178Z,46.61
2023-04-10T18:33:40.496Z,46.95
2023-04-10T18:36:07.280Z,47.07
2023-04-10T18:38:34.212Z,46.28
2023-04-10T18:41:00.501Z,46.94
2023-04-10T18:43:26.845Z,46.53
2023-04-10T18:45:53.986Z,46.98
2023-04-10T18:48:20.462Z,46.81
2023-04-10T18:50:46.833Z,47.66
2023-04-10T18:53:13.270Z,47.21
2023-04-10T18:55:39.563Z,47.34
2023-04-10T18:58:05.850Z,47.46
2023-04-10T19:00:32.158Z,46.96
2023-04-10T19:02:58.482Z,47.08
2023-04-10T19:05:24.979Z,47.54
2023-04-10T19:08:02.974Z,47.57
2023-04-10T19:10:30.291Z,47.86
2023-04-10T19:12:56.601Z,47.60
2023-04-10T19:15:24.068Z,48.13
2023-04-10T19:17:54.317Z,47.73
2023-04-10T19:20:49.207Z,47.66
2023-04-10T19:23:07.733Z,47.30
2023-04-10T19:25:34.017Z,48.48
2023-04-10T19:28:00.965Z,48.15
2023-04-10T19:30:27.333Z,48.08
2023-04-10T19:32:53.780Z,47.78
2023-04-10T19:35:20.228Z,48.21
2023-04-10T19:37:46.516Z,47.88
2023-04-10T19:40:12.941Z,47.91
2023-04-10T19:42:39.271Z,48.77
2023-04-10T19:45:06.036Z,48.72
2023-04-10T19:47:32.318Z,47.98
2023-04-10T19:50:00.795Z,48.97
2023-04-10T19:52:27.208Z,48.89
2023-04-10T19:54:53.525Z,49.11
2023-04-10T19:57:19.965Z,49.30
2023-04-10T19:59:46.292Z,48.53
2023-04-10T20:02:12.776Z,48.90
2023-04-10T20:04:39.400Z,48.81
2023-04-10T20:07:05.915Z,49.51
2023-04-10T20:09:32.303Z,49.25
2023-04-10T20:11:58.613Z,48.98
2023-04-10T20:14:24.956Z,49.68
2023-04-10T20:16:51.268Z,49.00
2023-04-10T20:19:17.598Z,49.54
2023-04-10T20:21:43.899Z,49.42
2023-04-10T20:24:10.258Z,50.23
2023-04-10T20:26:36.543Z,49.49
2023-04-10T20:29:02.965Z,49.79
2023-04-10T20:31:29.274Z,50.29
2023-04-10T20:33:55.656Z,49.87
2023-04-10T20:36:21.986Z,50.54
2023-04-10T20:38:48.307Z,50.13
2023-04-10T20:41:14.622Z,50.37
2023-04-10T20:43:40.992Z,50.26
2023-04-10T20:46:07.651Z,50.93
2023-04-10T20:48:34.074Z,50.72
2023-04-10T20:51:00.493Z,50.92
2023-04-10T20:53:26.877Z,50.59
2023-04-10T20:55:53.240Z,50.87
2023-04-10T20:58:20.055Z,51.32
2023-04-10T21:00:46.562Z,51.49
2023-04-10T21:03:13.153Z,50.95
2023-04-10T21:05:42.670Z,51.73
2023-04-10T21:08:10.194Z,50.62
2023-04-10T21:10:36.545Z,51.78
2023-04-10T21:13:02.854Z,52.07
2023-04-10T21:15:29.145Z,52.72
2023-04-10T21:17:55.502Z,52.10
2023-04-10T21:20:22.807Z,52.45
2023-04-10T21:22:49.146Z,52.59
2023-04-10T21:25:15.449Z,52.63
2023-04-10T21:27:41.712Z,52.27
2023-04-10T21:30:09.403Z,51.91
2023-04-10T21:32:35.755Z,52.23
2023-04-10T21:35:02.100Z,52.44
2023-04-10T21:37:28.384Z,51.60
2023-04-10T21:39:54.680Z,52.95
2023-04-10T21:42:20.958Z,52.55
2023-04-10T21:44:47.247Z,52.70
2023-04-10T21:47:13.540Z,53.19
2023-04-10T21:49:39.937Z,53.05
2023-04-10T21:52:06.428Z,52.85
2023-04-10T21:54:32.872Z,53.45
2023-04-10T21:56:59.205Z,53.29
2023-04-10T21:59:25.500Z,53.50
2023-04-10T22:01:51.808Z,52.63
2023-04-10T22:04:18.416Z,53.54
2023-04-10T22:06:44.844Z,53.65
2023-04-10T22:09:11.121Z,53.04
2023-04-10T22:11:37.455Z,53.43
2023-04-10T22:14:14.893Z,53.39
2023-04-10T22:16:43.793Z,53.21
2023-04-10T22:19:10.171Z,54.17
2023-04-10T22:21:36.434Z,53.89
2023-04-10T22:24:02.838Z,53.19
2023-04-10T22:26:29.264Z,53.88
2023-04-10T22:28:55.906Z,53.31
2023-04-10T22:31:22.474Z,54.01
2023-04-10T22:33:48.824Z,54.34
2023-04-10T22:36:15.127Z,53.55
2023-04-10T22:38:41.416Z,54.58
2023-04-10T22:41:07.715Z,53.50
2023-04-10T22:43:34.368Z,54.08
2023-04-10T22:46:00.702Z,53.99
2023-04-10T22:48:27.225Z,53.65
2023-04-10T22:50:53.517Z,53.84
2023-04-10T22:53:19.799Z,53.76
2023-04-10T22:55:46.086Z,53.50
2023-04-10T22:58:12.388Z,53.92
2023-04-10T23:00:38.855Z,54.32
2023-04-10T23:03:05.211Z,53.74
2023-04-10T23:05:31.581Z,54.70
2023-04-10T23:07:58.017Z,54.25
2023-04-10T23:10:24.307Z,54.80
2023-04-10T23:12:50.614Z,54.77
2023-04-10T23:15:16.969Z,54.28
2023-04-10T23:17:43.366Z,54.38
2023-04-10T23:20:10.271Z,54.41
2023-04-10T23:22:36.648Z,55.06
2023-04-10T23:25:03.121Z,54.46
2023-04-10T23:27:29.395Z,55.06
2023-04-10T23:29:55.695Z,55.04
2023-04-10T23:32:22.093Z,55.12
2023-04-10T23:34:48.438Z,54.55
2023-04-10T23:37:14.708Z,55.34
2023-04-10T23:39:41.044Z,55.34
2023-04-10T23:42:07.306Z,55.78
2023-04-10T23:44:33.651Z,55.15
2023-04-10T23:47:00.060Z,55.78
2023-04-10T23:49:26.432Z,55.64
2023-04-10T23:51:52.705Z,55.18
2023-04-10T23:54:19.115Z,55.08
2023-04-10T23:56:45.421Z,55.33
2023-04-10T23:59:11.734Z,55.30
